Time;durP1;ratioP1;P1;durP2;ratioP2;P2;SDS_P1;SDS_P2;PMS_P1;PMS_P2;Temp;Humidity;BMP_temperature;BMP_pressure;BME280_temperature;BME280_humidity;BME280_pressure;Samples;Min_cycle;Max_cycle;Signal;HPM_P1;HPM_P2
2021/05/13 04:59:11;;;;;;;18.37;14.68;;;;;;;10.41;92.91;99705.81;1830536;77;22230;-72
2021/05/13 05:01:38;;;;;;;14.03;11.38;;;;;;;10.46;92.29;99709.45;1804355;78;21009;-73
2021/05/13 05:04:07;;;;;;;32.08;22.15;;;;;;;10.58;91.92;99705.64;1794157;78;21170;-79
2021/05/13 05:06:34;;;;;;;15.90;11.60;;;;;;;10.69;91.04;99705.82;1800866;78;21007;-72
2021/05/13 05:09:02;;;;;;;13.78;10.00;;;;;;;10.82;90.58;99702.43;1806282;78;20972;-71
2021/05/13 05:11:29;;;;;;;10.25;9.25;;;;;;;10.95;89.82;99701.58;1767093;80;20932;-72
2021/05/13 05:13:57;;;;;;;15.23;12.78;;;;;;;11.08;89.01;99704.25;1741892;80;21024;-72
2021/05/13 05:16:24;;;;;;;21.50;14.25;;;;;;;11.21;88.66;99710.34;1756194;81;22225;-77
2021/05/13 05:18:51;;;;;;;11.55;10.35;;;;;;;11.34;87.83;99709.09;1733781;82;21095;-79
2021/05/13 05:21:18;;;;;;;9.40;8.45;;;;;;;11.46;87.98;99708.78;1773622;80;20961;-73
2021/05/13 05:23:45;;;;;;;10.43;9.40;;;;;;;11.60;86.86;99713.44;1759722;80;21012;-75
2021/05/13 05:26:13;;;;;;;11.45;9.58;;;;;;;11.75;86.26;99711.61;1759004;80;21038;-80
2021/05/13 05:28:40;;;;;;;9.65;8.25;;;;;;;11.91;85.49;99709.70;1772376;80;21855;-71
2021/05/13 05:31:07;;;;;;;8.80;7.92;;;;;;;12.12;85.09;99717.00;1767646;80;21648;-71
2021/05/13 05:33:35;;;;;;;8.70;7.90;;;;;;;12.33;84.44;99712.48;1767179;80;20996;-69
2021/05/13 05:36:02;;;;;;;8.80;8.00;;;;;;;12.46;82.25;99714.23;1769003;80;20971;-69
2021/05/13 05:38:30;;;;;;;8.40;7.60;;;;;;;12.56;82.78;99714.80;1774652;80;21614;-71
2021/05/13 05:40:58;;;;;;;7.65;6.83;;;;;;;12.68;81.34;99711.34;1764814;80;21095;-70
2021/05/13 05:43:25;;;;;;;7.65;6.85;;;;;;;12.80;81.82;99710.93;1758137;81;21071;-78
2021/05/13 05:45:53;;;;;;;6.30;5.70;;;;;;;13.02;81.41;99712.40;1738904;81;21064;-77
2021/05/13 05:48:20;;;;;;;6.20;5.70;;;;;;;13.26;80.00;99714.22;1757447;81;20968;-80
2021/05/13 05:50:47;;;;;;;6.28;5.12;;;;;;;13.46;78.41;99715.40;1743695;81;21035;-72
2021/05/13 05:53:15;;;;;;;5.50;5.10;;;;;;;13.66;77.28;99712.13;1738973;81;21102;-78
2021/05/13 05:55:42;;;;;;;7.12;4.92;;;;;;;13.83;75.95;99716.12;1746423;81;20954;-72
2021/05/13 05:58:09;;;;;;;4.65;4.22;;;;;;;14.05;75.70;99716.64;1738465;81;20936;-73
2021/05/13 06:00:38;;;;;;;4.55;4.15;;;;;;;14.33;74.57;99713.14;1722964;82;21052;-73
2021/05/13 06:03:05;;;;;;;5.10;3.67;;;;;;;14.61;71.63;99715.80;1735820;82;21045;-71
2021/05/13 06:05:32;;;;;;;4.30;3.40;;;;;;;14.98;70.23;99713.73;1734384;82;21681;-71
2021/05/13 06:07:59;;;;;;;5.03;3.55;;;;;;;15.44;68.52;99715.76;1738971;82;21020;-77
2021/05/13 06:10:27;;;;;;;3.80;3.50;;;;;;;16.03;67.61;99713.94;1748831;81;20945;-76
2021/05/13 06:12:54;;;;;;;3.12;2.92;;;;;;;16.66;63.84;99711.62;1786241;79;20977;-79
2021/05/13 06:15:22;;;;;;;3.85;3.55;;;;;;;17.00;60.78;99709.02;1784327;80;21447;-77
2021/05/13 06:17:50;;;;;;;3.77;3.47;;;;;;;17.19;60.08;99709.55;1783310;80;20974;-73
2021/05/13 06:20:24;;;;;;;6.37;4.53;;;;;;;17.28;60.69;99707.88;1787964;79;20953;-75
2021/05/13 06:22:52;;;;;;;4.35;4.00;;;;;;;17.30;60.47;99702.00;1775149;80;21411;-68
2021/05/13 06:25:19;;;;;;;4.25;3.58;;;;;;;17.19;59.65;99704.78;1786430;80;20972;-73
2021/05/13 06:27:47;;;;;;;6.30;3.80;;;;;;;16.92;59.11;99702.77;1756608;80;21479;-69
2021/05/13 06:30:20;;;;;;;3.70;3.40;;;;;;;16.59;60.82;99706.50;1780897;80;21482;-81
2021/05/13 06:32:47;;;;;;;4.40;3.55;;;;;;;16.40;61.85;99711.66;1783163;80;21021;-77
2021/05/13 06:35:16;;;;;;;5.62;5.10;;;;;;;16.24;62.11;99705.09;1785985;79;21015;-70
2021/05/13 06:37:44;;;;;;;5.67;5.15;;;;;;;16.13;61.47;99709.59;1763466;80;21017;-70
2021/05/13 06:40:13;;;;;;;5.35;4.80;;;;;;;15.96;61.58;99706.60;1742236;80;20953;-70
2021/05/13 06:42:41;;;;;;;6.10;3.80;;;;;;;15.83;62.59;99709.89;1784659;80;21499;-71
2021/05/13 06:45:09;;;;;;;3.77;3.47;;;;;;;15.75;62.00;99708.85;1786569;80;20897;-74
2021/05/13 06:47:39;;;;;;;4.35;3.95;;;;;;;15.60;61.66;99708.31;1784641;80;20981;-70
2021/05/13 06:50:07;;;;;;;3.98;3.58;;;;;;;15.45;62.29;99705.14;1764911;80;20956;-72
2021/05/13 06:52:35;;;;;;;7.60;4.15;;;;;;;15.40;62.81;99706.47;1721619;82;21105;-71
2021/05/13 06:55:05;;;;;;;3.27;3.00;;;;;;;15.53;62.57;99704.04;1741008;81;21193;-69
2021/05/13 06:57:32;;;;;;;3.37;3.17;;;;;;;15.86;62.25;99706.18;1749196;80;20982;-68
2021/05/13 06:59:59;;;;;;;3.50;3.20;;;;;;;16.32;60.31;99703.97;1758520;81;20973;-71
2021/05/13 07:02:27;;;;;;;4.95;4.00;;;;;;;16.56;59.53;99697.56;1746020;82;20987;-71
2021/05/13 07:04:54;;;;;;;4.60;3.00;;;;;;;16.53;59.57;99693.41;1730060;81;21600;-69
2021/05/13 07:07:21;;;;;;;3.62;3.33;;;;;;;16.44;59.57;99696.81;1729921;81;21165;-66
2021/05/13 07:09:48;;;;;;;3.58;3.27;;;;;;;16.33;59.63;99695.61;1720184;82;21044;-71
2021/05/13 07:12:15;;;;;;;4.17;2.92;;;;;;;16.24;59.34;99704.27;1743961;81;20973;-70
2021/05/13 07:14:43;;;;;;;3.90;2.67;;;;;;;16.12;59.14;99705.30;1784359;80;20942;-71
2021/05/13 07:17:11;;;;;;;2.72;2.52;;;;;;;16.11;58.76;99703.63;1786247;80;20926;-70
2021/05/13 07:19:38;;;;;;;7.75;5.70;;;;;;;16.35;59.52;99701.56;1787064;80;21080;-71
2021/05/13 07:22:06;;;;;;;6.60;5.90;;;;;;;16.65;58.70;99699.44;1778448;79;21012;-70
2021/05/13 07:24:33;;;;;;;4.62;3.95;;;;;;;16.88;57.40;99700.05;1807521;79;20981;-77
2021/05/13 07:27:00;;;;;;;3.77;2.62;;;;;;;17.00;57.59;99701.13;1807936;79;21439;-73
2021/05/13 07:29:27;;;;;;;5.20;3.45;;;;;;;17.11;57.00;99701.98;1790170;79;20993;-75
2021/05/13 07:31:54;;;;;;;6.75;2.20;;;;;;;17.13;56.48;99689.53;1778937;79;21238;-69
2021/05/13 07:34:22;;;;;;;3.92;2.20;;;;;;;17.18;56.30;99690.79;1762105;80;20946;-74
2021/05/13 07:36:49;;;;;;;5.70;3.08;;;;;;;17.51;56.38;99696.14;1786818;79;20982;-78
2021/05/13 07:39:16;;;;;;;4.00;3.60;;;;;;;18.09;53.98;99686.03;1787151;79;21510;-79
2021/05/13 07:41:44;;;;;;;3.20;3.00;;;;;;;18.47;51.41;99686.39;1788811;79;20890;-78
2021/05/13 07:44:12;;;;;;;3.52;2.20;;;;;;;18.61;51.79;99684.64;1772156;80;21057;-73
2021/05/13 07:46:42;;;;;;;2.30;2.20;;;;;;;18.86;51.28;99687.07;1814546;74;20930;-77
2021/05/13 07:49:10;;;;;;;1.70;1.60;;;;;;;19.07;48.95;99692.93;1846843;77;20919;-72
2021/05/13 07:51:37;;;;;;;2.30;2.02;;;;;;;19.23;49.07;99698.85;1847263;77;20960;-68
2021/05/13 07:54:05;;;;;;;2.35;2.02;;;;;;;19.36;48.49;99697.17;1855336;77;20961;-74
2021/05/13 07:56:32;;;;;;;2.30;2.12;;;;;;;19.18;48.91;99693.22;1840428;77;20968;-71
2021/05/13 07:58:59;;;;;;;4.35;1.92;;;;;;;18.88;50.20;99699.14;1837717;77;20931;-74
2021/05/13 08:01:26;;;;;;;2.67;1.40;;;;;;;18.62;50.74;99687.63;1843533;77;21611;-71
2021/05/13 08:03:54;;;;;;;1.85;1.75;;;;;;;18.36;50.84;99691.38;1848050;77;21417;-76
2021/05/13 08:06:21;;;;;;;1.80;1.70;;;;;;;18.08;51.30;99694.91;1849776;77;21509;-72
2021/05/13 08:08:48;;;;;;;1.90;1.80;;;;;;;17.76;51.58;99694.77;1856468;75;21056;-72
2021/05/13 08:11:16;;;;;;;1.98;1.87;;;;;;;17.50;52.22;99693.16;1846677;75;21064;-73
2021/05/13 08:13:43;;;;;;;2.12;1.90;;;;;;;17.35;53.09;99687.95;1843633;76;21218;-73
2021/05/13 08:16:11;;;;;;;2.75;1.70;;;;;;;17.27;53.36;99682.53;1845347;76;20939;-75
2021/05/13 08:18:38;;;;;;;2.55;1.80;;;;;;;17.18;53.72;99689.47;1845984;77;20970;-71
2021/05/13 08:21:06;;;;;;;2.70;2.27;;;;;;;17.11;53.96;99689.66;1837169;77;21008;-73
2021/05/13 08:23:38;;;;;;;2.83;1.80;;;;;;;17.00;53.82;99688.46;1845769;75;20855;-73
2021/05/13 08:26:05;;;;;;;2.27;2.05;;;;;;;16.98;53.83;99688.59;1839424;77;20955;-75
2021/05/13 08:28:33;;;;;;;1.87;1.77;;;;;;;17.21;54.48;99689.17;1847748;77;21410;-72
2021/05/13 08:31:00;;;;;;;1.80;1.60;;;;;;;17.69;52.31;99698.09;1787716;80;20981;-83
2021/05/13 08:33:27;;;;;;;4.75;2.08;;;;;;;18.23;51.33;99694.33;1850329;76;21029;-75
2021/05/13 08:35:54;;;;;;;1.80;1.70;;;;;;;18.61;49.81;99705.25;1778769;80;21078;-79
2021/05/13 08:38:21;;;;;;;1.75;1.65;;;;;;;18.70;49.41;99700.09;1787826;79;20983;-75
2021/05/13 08:40:49;;;;;;;1.70;1.60;;;;;;;18.62;48.94;99701.64;1773726;79;20993;-77
2021/05/13 08:43:27;;;;;;;1.95;1.85;;;;;;;18.60;48.51;99704.08;1790194;80;21513;-71
2021/05/13 08:45:56;;;;;;;2.17;1.90;;;;;;;18.59;48.54;99701.89;1774915;80;21011;-67
2021/05/13 08:48:25;;;;;;;1.67;1.57;;;;;;;18.63;49.14;99688.80;1784789;79;21011;-66
2021/05/13 08:50:53;;;;;;;2.58;2.12;;;;;;;18.80;49.81;99695.56;1766036;80;20947;-67
2021/05/13 08:53:20;;;;;;;2.55;2.10;;;;;;;19.05;49.22;99691.42;1787645;79;21044;-78
2021/05/13 08:58:37;;;;;;;1.87;1.60;;;;;;;19.38;46.49;99695.22;1773427;79;21506;-74
2021/05/13 09:01:05;;;;;;;4.08;1.87;;;;;;;19.29;47.81;99701.73;1761145;80;21045;-75
2021/05/13 09:03:37;;;;;;;2.67;1.75;;;;;;;19.30;48.38;99700.75;1723150;80;20989;-77
2021/05/13 09:06:11;;;;;;;1.57;1.47;;;;;;;19.43;48.05;99700.39;1776055;79;20996;-72
2021/05/13 09:08:39;;;;;;;2.98;1.70;;;;;;;19.52;47.75;99697.37;1760635;81;21056;-77
2021/05/13 09:11:12;;;;;;;1.67;1.57;;;;;;;19.52;47.75;99697.37;1771858;80;20981;-74
2021/05/13 09:13:40;;;;;;;1.90;1.80;;;;;;;19.46;46.21;99717.74;1767644;80;20942;-71
2021/05/13 09:16:35;;;;;;;1.62;1.52;;;;;;;19.26;46.01;99712.59;1769713;80;21021;-71
2021/05/13 09:19:25;;;;;;;1.22;1.22;;;;;;;18.91;46.17;99708.57;1760246;80;21046;-71
2021/05/13 09:22:07;;;;;;;2.67;1.67;;;;;;;18.52;48.11;99714.48;1760501;81;21040;-70
2021/05/13 09:25:04;;;;;;;1.40;1.30;;;;;;;18.30;48.26;99717.00;1768961;80;21129;-73
2021/05/13 09:27:51;;;;;;;1.40;1.30;;;;;;;18.17;48.70;99712.51;1785978;80;20937;-73
2021/05/13 09:30:23;;;;;;;1.35;1.25;;;;;;;18.12;48.95;99716.05;1780231;80;20978;-74
2021/05/13 09:32:59;;;;;;;2.33;1.70;;;;;;;18.15;49.72;99715.77;1782012;80;20945;-72
2021/05/13 09:35:34;;;;;;;1.75;1.60;;;;;;;18.22;49.14;99715.55;1779086;79;21066;-77
2021/05/13 09:38:04;;;;;;;1.80;1.70;;;;;;;18.23;49.31;99719.37;1774006;80;21041;-65
2021/05/13 09:40:52;;;;;;;2.42;2.22;;;;;;;18.21;49.36;99728.39;1788490;80;21002;-68
2021/05/13 09:43:20;;;;;;;2.75;1.35;;;;;;;18.17;49.20;99725.69;1778249;80;21621;-73
2021/05/13 09:45:50;;;;;;;1.50;1.40;;;;;;;18.07;49.42;99721.75;1782878;79;20950;-71
2021/05/13 09:48:39;;;;;;;3.33;1.45;;;;;;;17.98;49.95;99723.94;1779990;80;20961;-73
2021/05/13 09:51:29;;;;;;;7.60;2.10;;;;;;;17.93;50.49;99724.84;1773573;80;21627;-73
2021/05/13 09:54:16;;;;;;;1.77;1.67;;;;;;;17.91;49.52;99720.19;1778777;80;20917;-76
2021/05/13 09:56:49;;;;;;;3.95;1.82;;;;;;;17.84;49.53;99717.77;1785662;80;21507;-69
2021/05/13 09:59:34;;;;;;;2.60;2.40;;;;;;;17.82;49.90;99715.77;1776195;79;21013;-71
2021/05/13 10:02:06;;;;;;;2.95;1.90;;;;;;;17.90;50.66;99716.73;1794765;80;21383;-84
2021/05/13 10:04:33;;;;;;;3.85;2.12;;;;;;;18.07;50.36;99720.91;1793573;79;22136;-69
2021/05/13 10:07:01;;;;;;;3.00;2.15;;;;;;;18.23;49.92;99719.85;1793087;79;20950;-70
2021/05/13 10:09:28;;;;;;;5.90;2.95;;;;;;;18.28;49.42;99720.26;1793616;79;20988;-73
2021/05/13 10:11:57;;;;;;;2.30;2.10;;;;;;;18.32;49.56;99709.29;1793565;79;21040;-70
2021/05/13 10:14:26;;;;;;;1.98;1.87;;;;;;;18.33;49.50;99714.08;1793532;79;21530;-71
2021/05/13 10:16:56;;;;;;;5.22;2.25;;;;;;;18.47;49.43;99710.95;1793671;79;21060;-69
2021/05/13 10:19:42;;;;;;;4.20;2.15;;;;;;;18.67;48.63;99709.12;1792244;79;21736;-73
2021/05/13 10:22:12;;;;;;;3.27;2.10;;;;;;;18.82;48.68;99713.40;1795352;79;20969;-72
2021/05/13 10:24:39;;;;;;;4.58;2.20;;;;;;;18.90;48.14;99700.31;1795432;79;20949;-67
2021/05/13 10:27:22;;;;;;;2.87;2.25;;;;;;;18.89;47.97;99713.99;1795444;79;21009;-72
2021/05/13 10:30:02;;;;;;;2.17;2.08;;;;;;;18.88;47.92;99705.73;1795435;79;21761;-71
2021/05/13 10:32:32;;;;;;;2.70;2.50;;;;;;;18.87;48.18;99700.12;1795370;79;20970;-71
2021/05/13 10:35:06;;;;;;;3.87;3.40;;;;;;;18.88;47.78;99695.67;1771311;80;21072;-71
2021/05/13 10:37:38;;;;;;;3.30;3.00;;;;;;;18.79;46.97;99696.58;1761745;80;20958;-71
2021/05/13 10:40:22;;;;;;;4.37;3.33;;;;;;;18.68;46.68;99700.72;1792801;80;20990;-69
2021/05/13 10:43:02;;;;;;;3.25;2.95;;;;;;;18.61;46.73;99697.34;1794268;79;21749;-67
2021/05/13 10:45:32;;;;;;;5.40;2.92;;;;;;;18.51;47.21;99695.68;1684865;84;20934;-71
2021/05/13 10:48:21;;;;;;;5.17;3.30;;;;;;;18.35;47.75;99701.58;1709181;82;21043;-69
2021/05/13 10:51:08;;;;;;;6.05;3.55;;;;;;;18.36;48.02;99698.46;1666468;83;20967;-72
2021/05/13 10:53:47;;;;;;;7.05;3.30;;;;;;;18.45;47.92;99691.81;1706369;82;20939;-71
2021/05/13 10:56:28;;;;;;;3.52;2.67;;;;;;;18.55;48.20;99688.66;1708668;82;21461;-70
2021/05/13 10:59:14;;;;;;;3.70;3.17;;;;;;;18.69;48.07;99697.94;1726394;82;21006;-68
2021/05/13 11:01:51;;;;;;;4.55;3.95;;;;;;;18.76;47.54;99693.74;1733541;82;21544;-72
2021/05/13 11:04:28;;;;;;;15.28;8.00;;;;;;;18.81;47.64;99693.27;1722706;82;20939;-71
2021/05/13 11:07:07;;;;;;;4.40;4.00;;;;;;;18.81;47.51;99694.59;1726877;82;20919;-75
2021/05/13 11:09:46;;;;;;;3.12;2.80;;;;;;;18.77;47.34;99686.17;1734088;82;21078;-74
2021/05/13 11:12:23;;;;;;;3.15;2.45;;;;;;;18.77;46.53;99689.30;1735075;82;20961;-76
2021/05/13 11:15:23;;;;;;;5.90;4.42;;;;;;;18.74;46.61;99694.86;1705865;82;20957;-73
2021/05/13 11:17:52;;;;;;;3.65;2.55;;;;;;;18.63;45.93;99689.28;1722059;81;21036;-71
2021/05/13 11:20:25;;;;;;;5.75;3.17;;;;;;;18.52;46.38;99686.80;1724852;81;21062;-66
2021/05/13 11:22:53;;;;;;;2.50;2.30;;;;;;;18.48;46.09;99696.80;1721929;81;21085;-69
2021/05/13 11:25:20;;;;;;;4.85;3.47;;;;;;;18.42;46.64;99688.63;1721884;81;20923;-69
2021/05/13 11:27:48;;;;;;;15.25;7.22;;;;;;;18.31;47.24;99693.12;1706678;83;20920;-68
2021/05/13 11:30:25;;;;;;;7.75;4.80;;;;;;;18.14;47.81;99687.27;1727525;81;21031;-73
2021/05/13 11:32:52;;;;;;;6.08;4.22;;;;;;;17.99;48.05;99692.15;1717866;81;21114;-74
2021/05/13 11:35:22;;;;;;;9.35;6.87;;;;;;;17.88;48.22;99687.55;1721354;80;20974;-70
2021/05/13 11:37:54;;;;;;;7.05;2.98;;;;;;;17.82;48.33;99681.03;1726716;81;21013;-74
2021/05/13 11:40:30;;;;;;;7.75;2.60;;;;;;;17.84;48.55;99672.51;1711636;83;20910;-74
2021/05/13 11:46:21;;;;;;;2.83;2.62;;;;;;;17.89;48.25;99679.50;1777976;80;20998;-74
2021/05/13 11:48:50;;;;;;;3.62;2.37;;;;;;;17.85;48.60;99680.76;1782544;79;21027;-75
2021/05/13 11:51:25;;;;;;;4.30;2.45;;;;;;;17.84;48.24;99679.09;1781836;78;20970;-76
2021/05/13 11:53:58;;;;;;;5.25;2.05;;;;;;;17.81;47.94;99666.69;1778255;79;21613;-75
2021/05/13 11:56:28;;;;;;;4.20;2.40;;;;;;;17.79;48.68;99664.69;1778296;78;21658;-73
2021/05/13 11:58:56;;;;;;;2.52;2.33;;;;;;;17.89;48.46;99668.14;1787583;79;21013;-73
2021/05/13 12:01:38;;;;;;;5.00;2.37;;;;;;;18.01;47.60;99674.88;1777965;78;21060;-73
2021/05/13 12:04:13;;;;;;;2.75;2.27;;;;;;;18.17;46.99;99662.44;1775384;78;21618;-75
2021/05/13 12:06:51;;;;;;;4.05;2.15;;;;;;;18.36;45.87;99652.33;1771582;78;21008;-69
2021/05/13 12:09:19;;;;;;;2.92;2.00;;;;;;;18.58;45.81;99651.45;1788983;78;20934;-71
2021/05/13 12:11:49;;;;;;;4.15;2.55;;;;;;;18.81;44.52;99647.94;1793161;79;20909;-75
2021/05/13 12:14:27;;;;;;;5.25;2.05;;;;;;;18.98;44.33;99647.15;1784942;79;21659;-74
2021/05/13 12:17:03;;;;;;;3.35;2.25;;;;;;;19.07;43.67;99652.03;1776408;79;20997;-72
2021/05/13 12:19:32;;;;;;;5.12;2.40;;;;;;;19.10;43.57;99642.98;1790203;80;21580;-72
2021/05/13 12:22:05;;;;;;;4.60;2.62;;;;;;;19.12;42.15;99638.38;1792978;79;20941;-77
2021/05/13 12:24:34;;;;;;;2.60;2.40;;;;;;;19.05;42.61;99652.66;1780112;79;21625;-77
2021/05/13 12:27:01;;;;;;;2.55;2.35;;;;;;;18.97;41.72;99649.45;1786848;78;21056;-71
2021/05/13 12:29:28;;;;;;;6.05;2.37;;;;;;;18.82;42.42;99643.00;1776159;79;21519;-78
2021/05/13 12:31:56;;;;;;;2.55;2.35;;;;;;;18.70;43.15;99643.37;1788876;79;20981;-79
2021/05/13 12:34:40;;;;;;;4.78;2.80;;;;;;;18.63;43.08;99641.33;1777040;78;21631;-71
2021/05/13 12:37:09;;;;;;;3.40;3.08;;;;;;;18.63;42.71;99640.50;1778216;79;20976;-73
2021/05/13 12:39:40;;;;;;;4.50;2.92;;;;;;;18.66;43.19;99637.56;1778065;78;21089;-72
2021/05/13 12:42:29;;;;;;;6.87;2.98;;;;;;;18.71;43.00;99637.13;1787511;79;21455;-72
2021/05/13 12:45:22;;;;;;;2.60;2.40;;;;;;;18.73;42.59;99641.77;1787348;79;20909;-73
2021/05/13 12:48:03;;;;;;;3.27;2.75;;;;;;;18.68;43.01;99644.84;1786027;78;20953;-73
2021/05/13 12:50:27;;;;;;;2.95;2.72;;;;;;;18.62;42.80;99631.75;1776980;78;20993;-76
2021/05/13 12:53:15;;;;;;;3.33;3.10;;;;;;;18.58;43.45;99629.03;1786284;78;20996;-76
2021/05/13 12:55:44;;;;;;;2.98;2.50;;;;;;;18.53;42.73;99626.00;1781906;79;20911;-77
2021/05/13 12:58:19;;;;;;;2.52;2.35;;;;;;;18.44;43.00;99620.28;1793361;79;21622;-73
2021/05/13 13:00:58;;;;;;;2.98;2.47;;;;;;;18.42;43.63;99623.55;1792856;79;20997;-68
2021/05/13 13:03:35;;;;;;;5.78;3.20;;;;;;;18.39;42.27;99617.77;1791865;79;20926;-70
2021/05/13 13:06:14;;;;;;;5.53;2.40;;;;;;;18.26;41.85;99620.25;1779653;79;21050;-69
2021/05/13 13:08:47;;;;;;;2.90;1.85;;;;;;;18.15;42.11;99614.32;1764341;79;21148;-68
2021/05/13 13:11:33;;;;;;;4.90;2.20;;;;;;;18.05;42.10;99624.89;1775009;79;21053;-71
2021/05/13 13:14:04;;;;;;;2.65;1.90;;;;;;;18.00;42.37;99627.95;1775755;79;21614;-66
2021/05/13 13:16:35;;;;;;;2.52;1.92;;;;;;;17.99;42.73;99626.80;1779935;79;21498;-68
2021/05/13 13:19:08;;;;;;;2.05;1.85;;;;;;;18.01;43.24;99623.51;1777221;79;21230;-72
2021/05/13 13:21:39;;;;;;;2.00;1.90;;;;;;;18.00;43.56;99630.58;1783429;78;21475;-81
2021/05/13 13:24:21;;;;;;;2.25;2.08;;;;;;;18.03;42.13;99618.09;1777682;79;20961;-77
2021/05/13 13:26:56;;;;;;;2.75;2.00;;;;;;;18.07;42.09;99616.84;1771835;79;21122;-73
2021/05/13 13:29:18;;;;;;;1.75;1.65;;;;;;;18.11;41.59;99620.36;1794052;79;20921;-69
2021/05/13 13:31:46;;;;;;;2.30;1.72;;;;;;;18.10;41.73;99614.75;1793800;80;21442;-74
2021/05/13 13:34:14;;;;;;;2.70;1.60;;;;;;;18.13;41.98;99617.59;1794400;79;21036;-66
2021/05/13 13:36:41;;;;;;;1.87;1.70;;;;;;;18.17;42.02;99611.89;1781395;78;21024;-66
2021/05/13 13:39:09;;;;;;;4.12;1.87;;;;;;;18.24;42.67;99619.56;1713692;83;20981;-74
2021/05/13 13:41:36;;;;;;;1.95;1.55;;;;;;;18.36;41.21;99608.84;1800558;78;20977;-76
2021/05/13 13:44:05;;;;;;;1.75;1.65;;;;;;;18.40;41.33;99604.41;1763989;81;21467;-70
2021/05/13 13:46:32;;;;;;;3.95;1.72;;;;;;;18.43;41.63;99610.72;1777618;79;21479;-71
2021/05/13 13:48:59;;;;;;;3.30;1.85;;;;;;;18.47;41.80;99612.58;1796111;78;20962;-83
2021/05/13 13:51:26;;;;;;;2.52;1.50;;;;;;;18.44;40.77;99605.78;1792889;79;21017;-74
2021/05/13 13:53:54;;;;;;;1.70;1.60;;;;;;;18.36;41.15;99601.76;1792760;80;21033;-71
2021/05/13 13:56:21;;;;;;;1.75;1.65;;;;;;;18.31;41.01;99606.63;1792342;79;22129;-74
2021/05/13 13:58:48;;;;;;;2.08;1.98;;;;;;;18.23;41.10;99605.20;1791574;79;21040;-73
2021/05/13 14:01:16;;;;;;;1.87;1.75;;;;;;;18.12;41.70;99612.80;1776617;79;21078;-76
2021/05/13 14:03:43;;;;;;;2.50;1.70;;;;;;;18.01;41.00;99607.70;1782127;79;21037;-72
2021/05/13 14:06:10;;;;;;;6.17;3.85;;;;;;;17.90;41.61;99610.05;1790136;79;21688;-71
2021/05/13 14:08:38;;;;;;;3.37;2.77;;;;;;;17.86;42.03;99611.79;1769163;79;23140;-74
2021/05/13 14:11:06;;;;;;;2.58;2.00;;;;;;;17.83;42.03;99618.17;1771884;79;21057;-70
2021/05/13 14:13:33;;;;;;;2.50;1.75;;;;;;;17.80;41.75;99621.57;1783026;80;21005;-81
2021/05/13 14:16:01;;;;;;;2.60;1.90;;;;;;;17.75;41.99;99623.31;1786284;79;21439;-68
2021/05/13 14:18:30;;;;;;;3.58;2.00;;;;;;;17.69;42.53;99626.50;1793858;79;20933;-70
2021/05/13 14:20:58;;;;;;;2.25;2.05;;;;;;;17.67;42.68;99624.50;1794674;80;21136;-64
2021/05/13 14:23:25;;;;;;;2.60;1.90;;;;;;;17.66;42.76;99624.98;1793048;79;20973;-74
2021/05/13 14:25:52;;;;;;;3.25;1.72;;;;;;;17.65;42.65;99624.64;1792860;80;20917;-69
2021/05/13 14:28:19;;;;;;;1.92;1.70;;;;;;;17.61;42.77;99630.29;1792875;80;20954;-69
2021/05/13 14:30:47;;;;;;;2.98;2.20;;;;;;;17.54;42.62;99629.22;1792780;80;21535;-78
2021/05/13 14:33:14;;;;;;;2.12;1.92;;;;;;;17.49;43.03;99630.13;1792823;79;21120;-76
2021/05/13 14:35:41;;;;;;;8.13;2.00;;;;;;;17.44;42.92;99629.70;1792711;80;20934;-70
2021/05/13 14:38:08;;;;;;;2.37;2.17;;;;;;;17.41;43.00;99628.66;1793054;80;21005;-76
2021/05/13 14:40:36;;;;;;;2.27;2.10;;;;;;;17.36;43.47;99629.56;1793010;80;21013;-78
2021/05/13 14:43:03;;;;;;;2.17;1.98;;;;;;;17.36;43.81;99633.52;1792629;79;20974;-75
2021/05/13 14:45:30;;;;;;;2.27;1.70;;;;;;;17.38;43.05;99624.99;1792636;79;21029;-74
